Latest Coastal Weather Observations for Red Rocks Point

IDW60701

Issued at 10:53 am WST Monday 23 October 2017 (issued every 10 minutes, with the page automatically refreshed every 10 minutes)

About coastal observations | Map of coastal stations | Coastal observations for WA | Marine services | Other Formats
Station Details ID: 011053 Name: RED ROCKS POINT Lat: -32.20 Lon: 127.53 Height: 3.1 m
Data from the previous 72 hours. | See also: Recent months at Red Rocks Point
Date/Time
WST
Temp
°C
Wind Pressure Rain since
9am
mm
Weather Cloud Vis
km
Sea
Height
m
Swell
Dir  Spd
kts
Gust
kts
hPa Trend Height
m
Period
s
Dir
23/10:30am 19.6 E 20 23 1008.7 - 0.0 - - - - - - -
23/10:00am 19.6 E 20 24 1009.2 - 0.0 - - - - - - -
23/09:30am 19.5 E 18 22 1009.5 - 0.0 - - - - - - -
23/09:00am 19.1 E 20 22 1010.0 - 0.0 - - - - - - -
23/08:30am 19.3 E 17 20 1010.3 - 0.0 - - - - - - -
23/08:00am 18.3 E 17 21 1010.7 - 0.0 - - - - - - -
23/07:30am 18.8 ENE 18 21 1010.9 - 0.0 - - - - - - -
23/07:00am 18.0 ENE 20 23 1010.8 - 0.0 - - - - - - -
23/06:30am 17.5 ENE 20 23 1010.9 - 0.0 - - - - - - -
23/06:00am 17.6 E 19 22 1011.5 - 0.0 - - - - - - -
23/05:30am 17.6 E 19 22 1011.2 - 0.0 - - - - - - -
23/05:00am 17.8 ENE 17 19 1011.5 - 0.0 - - - - - - -
23/04:30am 17.5 ENE 17 19 1011.6 - 0.0 - - - - - - -
23/04:00am 16.9 ENE 13 16 1011.8 - 0.0 - - - - - - -
23/03:30am 16.4 NE 10 14 1011.9 - 0.0 - - - - - - -
23/03:00am 17.4 ENE 17 20 1011.6 - 0.0 - - - - - - -
23/02:30am 17.2 E 14 16 1012.0 - 0.0 - - - - - - -
23/02:00am 17.0 E 13 15 1012.0 - 0.0 - - - - - - -
23/01:30am 15.8 NE 8 9 1012.3 - 0.0 - - - - - - -
23/01:00am 15.9 NE 8 10 1012.6 - 0.0 - - - - - - -
23/12:30am 16.4 NE 10 13 1012.8 - 0.0 - - - - - - -
23/12:00am 16.2 NE 10 14 1013.0 - 0.0 - - - - - - -
 
Date/Time
WST
Temp
°C
Wind Pressure Rain since
9am
mm
Weather Cloud Vis
km
Sea
Height
m
Swell
Dir  Spd
kts
Gust
kts
hPa Trend Height
m
Period
s
Dir
22/11:30pm 16.4 NE 8 12 1014.0 - 0.0 - - - - - - -
22/11:00pm 16.8 NE 11 14 1014.2 - 0.0 - - - - - - -
22/10:30pm 16.7 NE 11 16 1014.6 - 0.0 - - - - - - -
22/10:00pm 16.8 NE 10 13 1015.6 - 0.0 - - - - - - -
22/09:30pm 16.8 NE 7 10 1016.4 - 0.0 - - - - - - -
22/09:00pm 16.7 NE 15 21 1015.6 - 0.0 - - - - - - -
22/08:30pm 17.3 ENE 20 25 1015.8 - 0.0 - - - - - - -
22/08:00pm 16.9 ENE 17 21 1016.5 - 0.0 - - - - - - -
22/07:30pm 17.1 ENE 20 24 1017.0 - 0.0 - - - - - - -
22/07:00pm 17.1 ENE 23 26 1016.7 - 0.0 - - - - - - -
22/06:30pm 17.1 ENE 23 29 1016.7 - 0.0 - - - - - - -
22/06:00pm 16.9 E 24 27 1016.9 - 0.0 - - - - - - -
22/05:30pm 17.2 E 21 25 1016.9 - 0.0 - - - - - - -
22/05:00pm 17.1 E 23 25 1016.7 - 0.0 - - - - - - -
22/04:30pm 17.4 E 22 26 1016.8 - 0.0 - - - - - - -
22/04:00pm 18.1 E 21 25 1017.0 - 0.0 - - - - - - -
22/03:30pm 18.1 E 21 26 1017.0 - 0.0 - - - - - - -
22/03:00pm 18.2 E 23 26 1017.1 - 0.0 - - - - - - -
22/02:30pm 18.4 E 22 26 1017.4 - 0.0 - - - - - - -
22/02:00pm 17.9 E 23 27 1017.7 - 0.0 - - - - - - -
22/01:30pm 17.9 E 22 26 1018.3 - 0.0 - - - - - - -
22/01:00pm 18.2 E 20 25 1018.5 - 0.0 - - - - - - -
22/12:30pm 18.3 E 22 26 1019.0 - 0.0 - - - - - - -
22/12:00pm 18.6 E 22 26 1019.1 - 0.0 - - - - - - -
22/11:30am 18.4 E 23 27 1019.5 - 0.0 - - - - - - -
22/11:00am 18.5 E 22 26 1019.9 - 0.0 - - - - - - -
22/10:30am 18.6 E 21 26 1020.3 - 0.0 - - - - - - -
22/10:00am 18.2 E 21 24 1021.0 - 0.0 - - - - - - -
22/09:30am 18.4 E 21 25 1021.1 - 0.0 - - - - - - -
22/09:00am 18.2 E 20 24 1021.7 - - - - - - - - -
22/08:30am 17.2 ENE 19 23 1022.0 - - - - - - - - -
22/08:00am 16.9 E 20 24 1021.9 - - - - - - - - -
22/07:30am 16.8 ENE 18 22 1022.0 - - - - - - - - -
22/07:00am 16.1 ENE 19 23 1022.6 - - - - - - - - -
22/06:30am 15.8 ENE 16 21 1022.9 - - - - - - - - -
22/06:00am 14.4 NE 13 17 1023.2 - - - - - - - - -
22/05:30am 14.2 NE 12 16 1023.4 - - - - - - - - -
22/05:00am 13.8 NE 12 15 1023.4 - - - - - - - - -
22/04:30am 13.6 NE 13 16 1023.0 - - - - - - - - -
22/04:00am 13.7 NE 12 15 1023.1 - - - - - - - - -
22/03:30am 14.1 NE 11 17 1023.3 - - - - - - - - -
22/03:05am 14.6 ENE 15 25 1023.1 - - - - - - - - -
22/03:00am 14.8 ENE 19 25 1023.1 - - - - - - - - -
22/02:30am 15.4 E 21 25 1023.0 - - - - - - - - -
22/02:00am 15.4 E 22 25 1023.1 - - - - - - - - -
22/01:30am 15.5 E 21 25 1023.4 - - - - - - - - -
22/01:00am 15.6 E 21 26 1023.5 - - - - - - - - -
22/12:30am 15.2 E 22 26 1023.8 - - - - - - - - -
22/12:00am 15.4 E 23 27 1023.9 - - - - - - - - -
 
Date/Time
WST
Temp
°C
Wind Pressure Rain since
9am
mm
Weather Cloud Vis
km
Sea
Height
m
Swell
Dir  Spd
kts
Gust
kts
hPa Trend Height
m
Period
s
Dir
21/11:30pm 15.5 E 22 30 1024.2 - - - - - - - - -
21/11:00pm 15.6 E 22 26 1024.7 - - - - - - - - -
21/10:30pm 15.5 E 22 26 1025.2 - - - - - - - - -
21/10:00pm 15.5 E 22 27 1025.5 - 0.0 - - - - - - -
21/09:30pm 15.6 E 22 26 1025.8 - 0.0 - - - - - - -
21/09:00pm 15.5 E 22 26 1025.5 - 0.0 - - - - - - -
21/08:30pm 15.7 E 23 29 1025.6 - 0.0 - - - - - - -
21/08:00pm 15.5 E 23 28 1026.0 - 0.0 - - - - - - -
21/07:30pm 15.8 E 22 27 1026.1 - 0.0 - - - - - - -
21/07:00pm 15.7 E 23 28 1026.0 - 0.0 - - - - - - -
21/06:30pm 15.7 E 23 27 1026.0 - 0.0 - - - - - - -
21/06:00pm 15.9 E 21 26 1025.9 - 0.0 - - - - - - -
21/05:30pm 16.2 E 21 24 1025.8 - 0.0 - - - - - - -
21/05:00pm 16.3 E 21 25 1025.9 - 0.0 - - - - - - -
21/04:30pm 17.0 E 20 24 1026.3 - 0.0 - - - - - - -
21/04:00pm 17.3 ESE 21 24 1026.4 - 0.0 - - - - - - -
21/03:30pm 17.3 E 21 24 1026.8 - 0.0 - - - - - - -
21/03:00pm 17.9 ESE 19 23 1026.9 - 0.0 - - - - - - -
21/02:30pm 18.3 ESE 19 23 1027.1 - 0.0 - - - - - - -
21/02:00pm 18.3 ESE 20 24 1027.1 - 0.0 - - - - - - -
21/01:30pm 18.7 ESE 20 24 1027.2 - 0.0 - - - - - - -
21/01:00pm 18.6 ESE 21 24 1027.4 - 0.0 - - - - - - -
21/12:30pm 18.3 E 20 23 1027.8 - 0.0 - - - - - - -
21/12:00pm 18.9 ESE 19 23 1028.2 - 0.0 - - - - - - -
21/11:30am 18.9 ESE 18 21 1028.7 - 0.0 - - - - - - -
21/11:00am 18.1 E 18 21 1028.9 - 0.0 - - - - - - -
21/10:30am 18.1 E 18 21 1029.2 - 0.0 - - - - - - -
21/10:00am 18.1 E 17 20 1029.6 - 0.0 - - - - - - -
21/09:30am 17.8 E 18 22 1029.9 - 0.0 - - - - - - -
21/09:00am 17.7 E 17 21 1030.1 - 0.0 - - - - - - -
21/08:30am 17.3 E 17 21 1030.2 - 0.0 - - - - - - -
21/08:00am 17.0 E 17 21 1030.2 - 0.0 - - - - - - -
21/07:30am 16.2 ENE 17 22 1030.3 - 0.0 - - - - - - -
21/07:00am 16.2 E 17 22 1030.2 - 0.0 - - - - - - -
21/06:30am 15.7 E 19 24 1030.1 - 0.0 - - - - - - -
21/06:00am 15.2 E 16 22 1030.2 - 0.0 - - - - - - -
21/05:30am 15.2 E 17 21 1030.0 - 0.0 - - - - - - -
21/05:00am 15.2 ESE 17 21 1029.9 - 0.0 - - - - - - -
21/04:30am 15.1 E 17 21 1029.6 - 0.0 - - - - - - -
21/04:00am 15.0 E 19 22 1029.4 - 0.0 - - - - - - -
21/03:30am 15.1 ENE 19 24 1029.4 - 0.0 - - - - - - -
21/03:00am 15.2 E 19 23 1029.3 - 0.0 - - - - - - -
21/02:30am 15.2 E 19 24 1029.3 - 0.0 - - - - - - -
21/02:00am 15.1 E 19 24 1029.4 - 0.0 - - - - - - -
21/01:30am 15.1 E 20 24 1029.9 - 0.0 - - - - - - -
21/01:00am 15.3 E 16 22 1030.1 - 0.0 - - - - - - -
21/12:30am 15.3 E 18 22 1030.5 - 0.0 - - - - - - -
21/12:00am 15.4 E 20 27 1030.9 - 0.0 - - - - - - -
 
Date/Time
WST
Temp
°C
Wind Pressure Rain since
9am
mm
Weather Cloud Vis
km
Sea
Height
m
Swell
Dir  Spd
kts
Gust
kts
hPa Trend Height
m
Period
s
Dir
20/11:30pm 15.1 E 22 27 1030.9 - 0.0 - - - - - - -
20/11:00pm 15.5 E 21 27 1030.9 - 0.0 - - - - - - -
20/10:30pm 15.2 E 21 27 1031.1 - 0.0 - - - - - - -
20/10:00pm 15.6 ESE 21 24 1031.4 - 0.0 - - - - - - -
20/09:30pm 15.5 ESE 20 26 1031.6 - 0.0 - - - - - - -
20/09:00pm 15.2 E 20 24 1032.1 - 0.0 - - - - - - -
20/08:30pm 15.4 E 21 25 1032.0 - 0.0 - - - - - - -
20/08:00pm 15.3 ESE 21 27 1031.6 - 0.0 - - - - - - -
20/07:30pm 15.5 E 20 25 1031.6 - 0.0 - - - - - - -
20/07:00pm 15.5 E 22 26 1031.0 - 0.0 - - - - - - -
20/06:30pm 15.5 E 21 25 1031.0 - 0.0 - - - - - - -
20/06:00pm 15.9 ESE 21 27 1030.5 - 0.0 - - - - - - -
20/05:30pm 16.0 ESE 20 26 1030.3 - 0.0 - - - - - - -
20/05:00pm 16.3 ESE 21 25 1030.1 - 0.0 - - - - - - -
20/04:30pm 16.5 E 20 24 1030.2 - 0.0 - - - - - - -
20/04:00pm 17.1 ESE 17 21 1030.7 - 0.0 - - - - - - -
20/03:30pm 17.4 ESE 16 19 1030.7 - 0.0 - - - - - - -
20/03:00pm 17.5 ESE 16 20 1030.7 - 0.0 - - - - - - -
20/02:30pm 18.1 ESE 18 20 1030.6 - 0.0 - - - - - - -
20/02:00pm 18.1 ESE 17 21 1030.7 - 0.0 - - - - - - -
20/01:30pm 18.4 ESE 17 20 1031.0 - 0.0 - - - - - - -
20/01:00pm 18.4 ESE 15 19 1031.3 - 0.0 - - - - - - -
20/12:30pm 18.6 ESE 16 20 1031.6 - 0.0 - - - - - - -
20/12:00pm 18.7 E 16 19 1031.9 - 0.0 - - - - - - -
20/11:30am 18.3 ESE 17 23 1032.2 - 0.0 - - - - - - -
20/11:00am 18.5 E 15 18 1032.5 - 0.0 - - - - - - -

Other Formats:

Comma delimited format used in spreadsheet applications
http://www.bom.gov.au/fwo/IDW60701/IDW60701.94644.axf

JavaScript Object Notation format (JSON) in row-major order
http://www.bom.gov.au/fwo/IDW60701/IDW60701.94644.json